Time;durP1;ratioP1;P1;durP2;ratioP2;P2;SDS_P1;SDS_P2;PMS_P1;PMS_P2;Temp;Humidity;BMP_temperature;BMP_pressure;BME280_temperature;BME280_humidity;BME280_pressure;Samples;Min_cycle;Max_cycle;Signal;HPM_P1;HPM_P2
2023/04/21 00:02:00;;;;;;;;;;;20.10;42.50;;;;;;5085122;28;19924;-63
2023/04/21 00:04:27;;;;;;;;;;;20.10;42.50;;;;;;5071137;28;20016;-62
2023/04/21 00:06:54;;;;;;;;;;;20.10;42.50;;;;;;5076277;28;20185;-62
2023/04/21 00:09:20;;;;;;;;;;;20.10;42.50;;;;;;5086331;28;19937;-63
2023/04/21 00:11:47;;;;;;;;;;;20.10;42.50;;;;;;5070627;28;19989;-62
2023/04/21 00:14:15;;;;;;;;;;;20.20;42.60;;;;;;5080369;28;19971;-63
2023/04/21 00:16:42;;;;;;;;;;;20.10;42.70;;;;;;5060269;28;19924;-62
2023/04/21 00:19:09;;;;;;;;;;;20.10;42.50;;;;;;5069771;28;19935;-62
2023/04/21 00:21:36;;;;;;;;;;;20.10;42.50;;;;;;5068832;28;19931;-63
2023/04/21 00:24:02;;;;;;;;;;;20.10;42.50;;;;;;5089771;28;19924;-62
2023/04/21 00:26:29;;;;;;;;;;;20.10;42.50;;;;;;5064558;28;20345;-62
2023/04/21 00:28:56;;;;;;;;;;;20.10;42.50;;;;;;5089342;28;19924;-62
2023/04/21 00:31:24;;;;;;;;;;;20.10;42.50;;;;;;5059473;28;20361;-62
2023/04/21 00:33:52;;;;;;;;;;;20.10;42.50;;;;;;5095865;28;20008;-62
2023/04/21 00:36:19;;;;;;;;;;;20.10;42.50;;;;;;5073509;28;19926;-62
2023/04/21 00:38:46;;;;;;;;;;;20.10;42.50;;;;;;5091610;28;19931;-62
2023/04/21 00:41:13;;;;;;;;;;;20.10;42.50;;;;;;5072662;28;19924;-62
2023/04/21 00:43:54;;;;;;;;;;;20.10;42.50;;;;;;5085638;28;19920;-62
2023/04/21 00:46:21;;;;;;;;;;;20.10;42.50;;;;;;5067809;28;19977;-64
2023/04/21 00:48:49;;;;;;;;;;;20.10;42.50;;;;;;5073139;28;19924;-62
2023/04/21 00:51:16;;;;;;;;;;;20.10;42.50;;;;;;5071441;28;19927;-63
2023/04/21 00:53:43;;;;;;;;;;;20.10;42.50;;;;;;5060941;28;19920;-62
2023/04/21 00:56:10;;;;;;;;;;;20.10;42.50;;;;;;5087759;28;19932;-63
2023/04/21 00:58:37;;;;;;;;;;;20.10;42.50;;;;;;5057204;28;19970;-64
2023/04/21 01:01:07;;;;;;;;;;;20.10;42.50;;;;;;5082906;28;19924;-63
2023/04/21 01:03:33;;;;;;;;;;;20.10;42.40;;;;;;5079988;28;19932;-63
2023/04/21 01:06:02;;;;;;;;;;;20.10;42.50;;;;;;5075009;28;19993;-62
2023/04/21 01:08:28;;;;;;;;;;;20.10;42.50;;;;;;5087918;28;19924;-62
2023/04/21 01:10:55;;;;;;;;;;;20.10;42.40;;;;;;5088637;28;19920;-63
2023/04/21 01:13:22;;;;;;;;;;;20.10;42.50;;;;;;5079617;28;19986;-62
2023/04/21 01:15:49;;;;;;;;;;;20.10;42.40;;;;;;5090450;28;20332;-64
2023/04/21 01:18:17;;;;;;;;;;;20.10;42.40;;;;;;5086151;28;19921;-63
2023/04/21 01:20:44;;;;;;;;;;;20.10;42.40;;;;;;5069602;28;19919;-62
2023/04/21 01:23:12;;;;;;;;;;;20.10;42.40;;;;;;5071326;28;19920;-63
2023/04/21 01:25:39;;;;;;;;;;;20.10;42.40;;;;;;5090248;28;19979;-63
2023/04/21 01:28:06;;;;;;;;;;;20.10;42.40;;;;;;5088510;28;20131;-64
2023/04/21 01:30:33;;;;;;;;;;;20.10;42.40;;;;;;5072787;28;20039;-63
2023/04/21 01:33:00;;;;;;;;;;;20.10;42.50;;;;;;5071877;28;19920;-62
2023/04/21 01:35:26;;;;;;;;;;;20.10;42.40;;;;;;5073518;28;19920;-63
2023/04/21 01:37:53;;;;;;;;;;;20.10;42.50;;;;;;5072322;28;19920;-62
2023/04/21 01:40:22;;;;;;;;;;;20.10;42.50;;;;;;5077291;28;19989;-62
2023/04/21 01:42:48;;;;;;;;;;;20.10;42.50;;;;;;5090508;28;19932;-62
2023/04/21 01:45:15;;;;;;;;;;;20.10;42.40;;;;;;5082720;28;19924;-62
2023/04/21 01:47:42;;;;;;;;;;;20.10;42.40;;;;;;5084218;28;19981;-62
2023/04/21 01:50:09;;;;;;;;;;;20.10;42.40;;;;;;5089230;28;19977;-62
2023/04/21 01:52:36;;;;;;;;;;;20.10;42.40;;;;;;5090172;28;19924;-63
2023/04/21 01:55:02;;;;;;;;;;;20.10;42.40;;;;;;5089069;28;19924;-63
2023/04/21 01:57:30;;;;;;;;;;;20.10;42.40;;;;;;5073287;28;20029;-62
2023/04/21 01:59:57;;;;;;;;;;;20.10;42.40;;;;;;5071696;28;19924;-63
2023/04/21 02:02:24;;;;;;;;;;;20.10;42.40;;;;;;5072353;28;20244;-63
2023/04/21 02:04:51;;;;;;;;;;;20.10;42.40;;;;;;5072000;28;19925;-63
2023/04/21 02:07:18;;;;;;;;;;;20.10;42.40;;;;;;5072701;28;19920;-63
2023/04/21 02:09:44;;;;;;;;;;;20.10;42.40;;;;;;5072054;28;19965;-62
2023/04/21 02:12:11;;;;;;;;;;;20.10;43.00;;;;;;5067648;28;19920;-63
2023/04/21 02:14:39;;;;;;;;;;;20.10;42.40;;;;;;5071608;28;19920;-63
2023/04/21 02:17:06;;;;;;;;;;;20.10;42.40;;;;;;5051858;28;19924;-63
2023/04/21 02:19:33;;;;;;;;;;;20.10;42.40;;;;;;5067160;28;19958;-63
2023/04/21 02:22:00;;;;;;;;;;;20.10;42.40;;;;;;5085856;28;19924;-63
2023/04/21 02:24:26;;;;;;;;;;;20.10;42.40;;;;;;5084909;28;19920;-62
2023/04/21 02:26:53;;;;;;;;;;;20.10;42.40;;;;;;5083474;28;19928;-63
2023/04/21 02:29:20;;;;;;;;;;;20.10;42.40;;;;;;5082703;28;19920;-64
2023/04/21 02:31:48;;;;;;;;;;;20.10;42.40;;;;;;5071814;28;20350;-62
2023/04/21 02:34:15;;;;;;;;;;;20.10;42.40;;;;;;5065226;28;19955;-63
2023/04/21 02:36:45;;;;;;;;;;;20.10;43.00;;;;;;5060851;28;20019;-63
2023/04/21 02:39:12;;;;;;;;;;;20.10;42.40;;;;;;5071706;28;19920;-63
2023/04/21 02:41:38;;;;;;;;;;;20.10;42.40;;;;;;5088611;28;20023;-62
2023/04/21 02:44:05;;;;;;;;;;;20.10;42.30;;;;;;5066102;28;19939;-62
2023/04/21 02:46:32;;;;;;;;;;;20.10;42.30;;;;;;5088502;28;19924;-63
2023/04/21 02:49:00;;;;;;;;;;;20.10;42.40;;;;;;5089289;28;20008;-63
2023/04/21 02:51:27;;;;;;;;;;;20.10;42.40;;;;;;5069011;28;19920;-63
2023/04/21 02:53:54;;;;;;;;;;;20.10;42.30;;;;;;5070988;28;20337;-62
2023/04/21 02:56:21;;;;;;;;;;;20.10;42.40;;;;;;5090138;28;19927;-63
2023/04/21 02:58:48;;;;;;;;;;;20.10;42.30;;;;;;5081755;28;19978;-63
2023/04/21 03:01:15;;;;;;;;;;;20.10;42.40;;;;;;5051831;28;19920;-63
2023/04/21 03:03:42;;;;;;;;;;;20.10;42.30;;;;;;5086461;28;19927;-62
2023/04/21 03:06:10;;;;;;;;;;;20.10;42.30;;;;;;5070596;28;19927;-62
2023/04/21 03:08:37;;;;;;;;;;;20.10;42.30;;;;;;5071234;28;19990;-63
2023/04/21 03:11:04;;;;;;;;;;;20.10;42.40;;;;;;5088735;28;19928;-63
2023/04/21 03:13:31;;;;;;;;;;;20.10;42.30;;;;;;5062592;28;19923;-63
2023/04/21 03:15:57;;;;;;;;;;;20.10;42.40;;;;;;5089271;28;19928;-62
2023/04/21 03:18:24;;;;;;;;;;;20.10;42.30;;;;;;5065092;28;19924;-63
2023/04/21 03:20:51;;;;;;;;;;;20.10;42.30;;;;;;5074189;28;19924;-62
2023/04/21 03:23:19;;;;;;;;;;;20.10;42.30;;;;;;5081049;28;19920;-63
2023/04/21 03:25:46;;;;;;;;;;;20.10;42.30;;;;;;5071789;28;19966;-62
2023/04/21 03:28:13;;;;;;;;;;;20.10;42.30;;;;;;5069538;28;19985;-63
2023/04/21 03:30:40;;;;;;;;;;;20.10;42.30;;;;;;5069035;28;19931;-62
2023/04/21 03:33:06;;;;;;;;;;;20.10;42.30;;;;;;5053659;28;19926;-63
2023/04/21 03:35:34;;;;;;;;;;;20.10;42.90;;;;;;5072096;28;19990;-64
2023/04/21 03:38:00;;;;;;;;;;;20.10;42.30;;;;;;5076289;28;19926;-62
2023/04/21 03:40:28;;;;;;;;;;;20.10;42.30;;;;;;5073886;28;19920;-63
2023/04/21 03:42:55;;;;;;;;;;;20.10;42.30;;;;;;5077208;28;19925;-63
2023/04/21 03:45:22;;;;;;;;;;;20.10;42.30;;;;;;5090683;28;19920;-63
2023/04/21 03:47:52;;;;;;;;;;;20.10;42.30;;;;;;5066726;28;19927;-63
2023/04/21 03:50:19;;;;;;;;;;;20.10;42.30;;;;;;5055334;28;19920;-63
2023/04/21 03:52:46;;;;;;;;;;;20.10;42.30;;;;;;5062284;28;19982;-63
2023/04/21 03:55:12;;;;;;;;;;;20.10;42.30;;;;;;5091036;28;19931;-63
2023/04/21 03:57:41;;;;;;;;;;;20.10;42.30;;;;;;5087023;28;19921;-63
2023/04/21 04:00:09;;;;;;;;;;;20.10;42.30;;;;;;5063007;28;20283;-62
2023/04/21 04:02:36;;;;;;;;;;;20.10;42.30;;;;;;5060758;28;20371;-63
2023/04/21 04:05:04;;;;;;;;;;;20.10;42.30;;;;;;5073908;28;19920;-63
2023/04/21 04:07:31;;;;;;;;;;;20.10;42.30;;;;;;5070502;28;19924;-63
2023/04/21 04:09:57;;;;;;;;;;;20.10;42.30;;;;;;5088506;28;19981;-63
2023/04/21 04:12:24;;;;;;;;;;;20.10;42.30;;;;;;5070734;28;19936;-63
2023/04/21 04:14:52;;;;;;;;;;;20.10;42.30;;;;;;5070550;28;19920;-62
2023/04/21 04:17:19;;;;;;;;;;;20.10;42.20;;;;;;5074246;28;19920;-63
2023/04/21 04:19:46;;;;;;;;;;;20.10;42.30;;;;;;5072829;28;19942;-63
2023/04/21 04:22:13;;;;;;;;;;;20.10;42.20;;;;;;5082764;28;19950;-63
2023/04/21 04:24:39;;;;;;;;;;;20.10;42.30;;;;;;5088293;28;19920;-62
2023/04/21 04:27:06;;;;;;;;;;;20.10;42.20;;;;;;5074374;28;19977;-62
2023/04/21 04:29:33;;;;;;;;;;;20.10;42.30;;;;;;5054639;28;19936;-63
2023/04/21 04:32:03;;;;;;;;;;;20.10;42.20;;;;;;5054868;28;20301;-64
2023/04/21 04:34:29;;;;;;;;;;;20.10;42.20;;;;;;5068085;28;19920;-63
2023/04/21 04:36:56;;;;;;;;;;;20.10;42.30;;;;;;5070897;28;19920;-63
2023/04/21 04:39:23;;;;;;;;;;;20.10;42.20;;;;;;5073501;28;19920;-63
2023/04/21 04:41:51;;;;;;;;;;;20.10;42.30;;;;;;5075529;28;19962;-62
2023/04/21 04:44:18;;;;;;;;;;;20.10;42.20;;;;;;5066264;28;19932;-62
2023/04/21 04:46:45;;;;;;;;;;;20.10;42.20;;;;;;5074007;28;19924;-63
2023/04/21 04:49:14;;;;;;;;;;;20.10;42.20;;;;;;5073973;28;19924;-62
2023/04/21 04:51:41;;;;;;;;;;;20.10;42.20;;;;;;5064737;28;19920;-62
2023/04/21 04:54:07;;;;;;;;;;;20.10;42.20;;;;;;5073119;28;19939;-64
2023/04/21 04:56:35;;;;;;;;;;;20.10;42.20;;;;;;5090751;28;19931;-63
2023/04/21 04:59:02;;;;;;;;;;;20.10;42.20;;;;;;5075359;28;19974;-63
2023/04/21 05:01:29;;;;;;;;;;;20.10;42.20;;;;;;5071689;28;19925;-63
2023/04/21 05:03:56;;;;;;;;;;;20.10;42.20;;;;;;5062129;28;20010;-63
2023/04/21 05:06:24;;;;;;;;;;;20.10;42.20;;;;;;5090966;28;19932;-63
2023/04/21 05:08:51;;;;;;;;;;;20.10;42.20;;;;;;5085618;28;19920;-62
2023/04/21 05:11:18;;;;;;;;;;;20.10;42.20;;;;;;5090813;28;19956;-63
2023/04/21 05:13:45;;;;;;;;;;;20.10;42.20;;;;;;5088484;28;20362;-63
2023/04/21 05:16:12;;;;;;;;;;;20.10;42.20;;;;;;5064725;28;19974;-63
2023/04/21 05:18:38;;;;;;;;;;;20.10;42.20;;;;;;5069765;28;20013;-64
2023/04/21 05:21:05;;;;;;;;;;;20.10;42.20;;;;;;5073108;28;19920;-63
2023/04/21 05:23:33;;;;;;;;;;;20.10;42.20;;;;;;5089469;28;19941;-63
2023/04/21 05:26:00;;;;;;;;;;;20.10;42.20;;;;;;5070250;28;20009;-63
2023/04/21 05:28:29;;;;;;;;;;;20.10;42.20;;;;;;5077754;28;19924;-63
2023/04/21 05:30:55;;;;;;;;;;;20.10;42.20;;;;;;5099737;28;20019;-64
2023/04/21 05:33:22;;;;;;;;;;;20.10;42.20;;;;;;5088350;28;19920;-62
2023/04/21 05:35:49;;;;;;;;;;;20.10;42.20;;;;;;5071916;28;19928;-63
2023/04/21 05:38:17;;;;;;;;;;;20.10;42.20;;;;;;5052951;28;20320;-62
2023/04/21 05:40:45;;;;;;;;;;;20.10;42.20;;;;;;5070426;28;19989;-62
2023/04/21 05:43:12;;;;;;;;;;;20.10;42.20;;;;;;5057231;28;19969;-63
2023/04/21 05:45:39;;;;;;;;;;;20.10;42.20;;;;;;5071977;28;19928;-63
2023/04/21 05:48:06;;;;;;;;;;;20.10;42.20;;;;;;5080602;28;19963;-62
2023/04/21 05:50:34;;;;;;;;;;;20.10;42.20;;;;;;5072616;28;19924;-63
2023/04/21 05:53:01;;;;;;;;;;;20.10;42.20;;;;;;5071843;28;20014;-63
2023/04/21 05:55:28;;;;;;;;;;;20.10;42.20;;;;;;5072933;28;19923;-62
2023/04/21 05:57:56;;;;;;;;;;;20.10;42.20;;;;;;5077356;28;19924;-62
2023/04/21 06:00:23;;;;;;;;;;;20.10;42.20;;;;;;5052609;28;20007;-63
2023/04/21 06:02:50;;;;;;;;;;;20.10;42.20;;;;;;5053849;28;19967;-65
2023/04/21 06:05:17;;;;;;;;;;;20.10;42.20;;;;;;5083109;28;19981;-64
2023/04/21 06:07:43;;;;;;;;;;;20.10;42.20;;;;;;5090234;28;20360;-64
2023/04/21 06:10:11;;;;;;;;;;;20.10;42.20;;;;;;5053096;28;19926;-63
2023/04/21 06:12:37;;;;;;;;;;;20.10;42.20;;;;;;5058582;28;20014;-64
2023/04/21 06:15:06;;;;;;;;;;;20.10;42.20;;;;;;5072464;28;20004;-63
2023/04/21 06:17:33;;;;;;;;;;;20.10;42.20;;;;;;5072531;28;19920;-64
2023/04/21 06:20:00;;;;;;;;;;;20.10;42.20;;;;;;5056941;28;20460;-64
2023/04/21 06:22:26;;;;;;;;;;;20.10;42.20;;;;;;5090048;28;21441;-64
2023/04/21 06:24:53;;;;;;;;;;;20.10;42.20;;;;;;5071558;28;19970;-63
2023/04/21 06:27:20;;;;;;;;;;;20.10;42.80;;;;;;5089329;28;19924;-62
2023/04/21 06:29:47;;;;;;;;;;;20.10;42.20;;;;;;5085163;28;19924;-62
2023/04/21 06:32:15;;;;;;;;;;;20.10;42.20;;;;;;5069804;28;20371;-62
2023/04/21 06:34:41;;;;;;;;;;;20.10;42.20;;;;;;5062871;28;20007;-63
2023/04/21 06:37:08;;;;;;;;;;;20.10;42.20;;;;;;5075679;28;19920;-62
2023/04/21 06:39:35;;;;;;;;;;;20.10;42.20;;;;;;5064991;28;19923;-62
2023/04/21 06:42:02;;;;;;;;;;;20.10;42.20;;;;;;5071487;28;19920;-62
2023/04/21 06:44:31;;;;;;;;;;;20.10;42.20;;;;;;5088200;28;19931;-63
2023/04/21 06:46:58;;;;;;;;;;;20.10;42.20;;;;;;5088729;28;20012;-62
2023/04/21 06:49:26;;;;;;;;;;;20.10;42.10;;;;;;5060410;28;19924;-62
2023/04/21 06:51:53;;;;;;;;;;;20.10;42.10;;;;;;5051794;28;19924;-63
2023/04/21 06:54:19;;;;;;;;;;;20.10;42.20;;;;;;5082889;28;21230;-62
2023/04/21 06:56:46;;;;;;;;;;;20.10;42.20;;;;;;5086018;28;19973;-64
2023/04/21 06:59:13;;;;;;;;;;;20.10;42.20;;;;;;5073433;28;19920;-64
2023/04/21 07:01:40;;;;;;;;;;;20.10;42.20;;;;;;5054888;28;19921;-64
2023/04/21 07:04:06;;;;;;;;;;;20.10;42.10;;;;;;5088995;28;19920;-64
2023/04/21 07:06:34;;;;;;;;;;;20.10;42.20;;;;;;5090583;28;19920;-64
2023/04/21 07:09:01;;;;;;;;;;;20.10;42.20;;;;;;5075573;28;19942;-64
2023/04/21 07:11:28;;;;;;;;;;;20.10;42.20;;;;;;5073841;28;19924;-64
2023/04/21 07:13:56;;;;;;;;;;;20.10;42.20;;;;;;5092406;28;19920;-64
2023/04/21 07:16:23;;;;;;;;;;;20.10;42.20;;;;;;5076287;28;19927;-64
2023/04/21 07:18:50;;;;;;;;;;;20.10;42.20;;;;;;5094543;28;19943;-64
2023/04/21 07:21:17;;;;;;;;;;;20.10;42.20;;;;;;5093076;28;19973;-64
2023/04/21 07:23:45;;;;;;;;;;;20.10;42.20;;;;;;5090685;28;19920;-65
2023/04/21 07:26:12;;;;;;;;;;;20.10;42.20;;;;;;5073579;28;19927;-65
2023/04/21 07:28:39;;;;;;;;;;;20.10;42.20;;;;;;5070587;28;19920;-64
2023/04/21 07:31:06;;;;;;;;;;;20.10;42.10;;;;;;5072531;28;19951;-65
2023/04/21 07:33:33;;;;;;;;;;;20.10;42.20;;;;;;5068738;28;19920;-64
2023/04/21 07:36:00;;;;;;;;;;;20.10;42.20;;;;;;5092623;28;19970;-64
2023/04/21 07:38:26;;;;;;;;;;;20.10;42.20;;;;;;5055436;28;20308;-64
2023/04/21 07:40:55;;;;;;;;;;;20.10;42.10;;;;;;5072908;28;19924;-64
2023/04/21 07:43:22;;;;;;;;;;;20.10;42.20;;;;;;5055446;28;19962;-64
2023/04/21 07:45:50;;;;;;;;;;;20.10;42.20;;;;;;5056065;28;19925;-65
2023/04/21 07:48:17;;;;;;;;;;;20.10;42.20;;;;;;5061120;28;19962;-65
2023/04/21 07:50:44;;;;;;;;;;;20.10;42.20;;;;;;5093666;28;19973;-65
2023/04/21 07:53:11;;;;;;;;;;;20.10;42.20;;;;;;5100709;28;19968;-65
2023/04/21 07:55:38;;;;;;;;;;;20.10;42.20;;;;;;5093237;28;19975;-64
2023/04/21 07:58:06;;;;;;;;;;;20.10;42.20;;;;;;5092421;28;19920;-64
2023/04/21 08:00:33;;;;;;;;;;;20.10;42.20;;;;;;5073295;28;19920;-65
2023/04/21 08:03:00;;;;;;;;;;;20.10;42.20;;;;;;5093211;28;20320;-65
2023/04/21 08:05:27;;;;;;;;;;;20.10;42.20;;;;;;5073641;28;19920;-65
2023/04/21 08:07:54;;;;;;;;;;;20.10;42.20;;;;;;5075263;28;19921;-65
2023/04/21 08:10:21;;;;;;;;;;;20.10;42.20;;;;;;5091485;28;19927;-65
2023/04/21 08:12:48;;;;;;;;;;;20.10;42.20;;;;;;5093555;28;19974;-65
2023/04/21 08:15:16;;;;;;;;;;;20.10;42.20;;;;;;5076060;28;19920;-65
2023/04/21 08:17:43;;;;;;;;;;;20.10;42.20;;;;;;5092262;28;19920;-65
2023/04/21 08:20:10;;;;;;;;;;;20.10;42.20;;;;;;5091456;28;20018;-64
2023/04/21 08:22:37;;;;;;;;;;;20.10;42.20;;;;;;5092117;28;19920;-64
2023/04/21 08:25:04;;;;;;;;;;;20.10;42.20;;;;;;5089607;28;19920;-64
2023/04/21 08:27:31;;;;;;;;;;;20.10;42.20;;;;;;5076152;28;20020;-64
2023/04/21 08:29:58;;;;;;;;;;;20.10;42.20;;;;;;5078738;28;19981;-65
2023/04/21 08:32:27;;;;;;;;;;;20.10;42.20;;;;;;5076518;28;19927;-65
2023/04/21 08:34:54;;;;;;;;;;;20.10;42.20;;;;;;5079131;28;19943;-65
2023/04/21 08:37:21;;;;;;;;;;;20.10;42.20;;;;;;5078545;28;19920;-64
2023/04/21 08:39:49;;;;;;;;;;;20.10;42.20;;;;;;5078496;28;19920;-65
2023/04/21 08:42:16;;;;;;;;;;;20.10;42.20;;;;;;5076907;28;19970;-65
2023/04/21 08:44:45;;;;;;;;;;;20.10;42.20;;;;;;5076457;28;19924;-65
2023/04/21 08:47:13;;;;;;;;;;;20.10;42.20;;;;;;5093660;28;19920;-65
2023/04/21 08:49:41;;;;;;;;;;;20.20;42.30;;;;;;5095226;28;19924;-64
2023/04/21 08:52:08;;;;;;;;;;;20.20;42.30;;;;;;5078200;28;19963;-64
2023/04/21 08:54:36;;;;;;;;;;;20.20;42.90;;;;;;5077042;28;19920;-65
2023/04/21 08:57:03;;;;;;;;;;;20.20;42.20;;;;;;5091686;28;19955;-64
2023/04/21 08:59:30;;;;;;;;;;;20.10;42.20;;;;;;5077892;28;19930;-64
2023/04/21 09:02:09;;;;;;;;;;;20.20;42.30;;;;;;5094146;28;19920;-63
2023/04/21 09:04:37;;;;;;;;;;;20.20;42.30;;;;;;5067416;28;20367;-63
2023/04/21 09:07:07;;;;;;;;;;;20.20;42.20;;;;;;5084590;28;19920;-63
2023/04/21 09:09:34;;;;;;;;;;;20.20;42.30;;;;;;5075757;28;19920;-63
2023/04/21 09:12:01;;;;;;;;;;;20.20;42.30;;;;;;5072096;28;19966;-63
2023/04/21 09:14:34;;;;;;;;;;;20.20;42.30;;;;;;5092876;28;19962;-63
2023/04/21 09:17:01;;;;;;;;;;;20.20;42.30;;;;;;5073236;28;19920;-63
2023/04/21 09:19:27;;;;;;;;;;;20.20;42.30;;;;;;5067960;28;19928;-63
2023/04/21 09:21:54;;;;;;;;;;;20.20;42.30;;;;;;5080366;28;20309;-63
2023/04/21 09:24:23;;;;;;;;;;;20.20;42.30;;;;;;5074199;28;19942;-63
2023/04/21 09:26:50;;;;;;;;;;;20.20;42.30;;;;;;5065505;28;19956;-62
2023/04/21 09:29:17;;;;;;;;;;;20.20;42.30;;;;;;5074086;28;19965;-63
2023/04/21 09:31:44;;;;;;;;;;;20.20;42.30;;;;;;5074175;28;19973;-63
2023/04/21 09:34:17;;;;;;;;;;;20.20;42.30;;;;;;5072592;28;20320;-63
2023/04/21 09:36:43;;;;;;;;;;;20.20;42.30;;;;;;5060170;28;20424;-63
2023/04/21 09:39:10;;;;;;;;;;;20.20;42.30;;;;;;5088431;28;20334;-63
2023/04/21 09:41:39;;;;;;;;;;;20.20;42.30;;;;;;5082940;28;19970;-63
2023/04/21 09:44:07;;;;;;;;;;;20.20;42.30;;;;;;5073440;28;19927;-63
2023/04/21 09:46:36;;;;;;;;;;;20.20;42.30;;;;;;5090523;28;19920;-63
2023/04/21 09:49:03;;;;;;;;;;;20.20;42.30;;;;;;5090583;28;19946;-63
2023/04/21 09:51:30;;;;;;;;;;;20.20;42.30;;;;;;5059501;28;19924;-63
2023/04/21 09:53:58;;;;;;;;;;;20.20;42.30;;;;;;5068553;28;19926;-63
2023/04/21 09:56:26;;;;;;;;;;;20.20;42.30;;;;;;5066313;28;19920;-63
2023/04/21 09:58:54;;;;;;;;;;;20.20;42.40;;;;;;5070727;28;20380;-62
2023/04/21 10:01:31;;;;;;;;;;;20.20;42.30;;;;;;5076840;28;19920;-63
2023/04/21 10:03:58;;;;;;;;;;;20.20;42.30;;;;;;5066595;28;19927;-63
2023/04/21 10:06:25;;;;;;;;;;;20.20;42.30;;;;;;5089791;28;19921;-63
2023/04/21 10:08:52;;;;;;;;;;;20.20;42.40;;;;;;5059628;28;19927;-63
2023/04/21 10:11:18;;;;;;;;;;;20.20;42.40;;;;;;5094969;28;20316;-63
2023/04/21 10:13:45;;;;;;;;;;;20.20;42.40;;;;;;5090137;28;20910;-63
2023/04/21 10:16:13;;;;;;;;;;;20.20;42.40;;;;;;5057516;28;19921;-64
2023/04/21 10:18:42;;;;;;;;;;;20.20;42.40;;;;;;5054630;28;19970;-63
2023/04/21 10:21:10;;;;;;;;;;;20.20;42.40;;;;;;5057297;28;20025;-63
2023/04/21 10:23:37;;;;;;;;;;;20.20;42.40;;;;;;5072607;28;19927;-63
2023/04/21 10:26:05;;;;;;;;;;;20.20;42.40;;;;;;5078569;28;19920;-63
2023/04/21 10:28:48;;;;;;;;;;;20.20;42.40;;;;;;5076964;28;20001;-63
2023/04/21 10:31:25;;;;;;;;;;;20.20;42.40;;;;;;5094511;28;19920;-64
2023/04/21 10:34:11;;;;;;;;;;;20.20;42.40;;;;;;5073682;28;19920;-63
2023/04/21 10:36:42;;;;;;;;;;;20.20;42.40;;;;;;5073024;28;19920;-64
2023/04/21 10:39:11;;;;;;;;;;;20.20;42.40;;;;;;5074518;28;19988;-64
2023/04/21 10:41:37;;;;;;;;;;;20.20;42.40;;;;;;5086217;28;19920;-63
2023/04/21 10:44:11;;;;;;;;;;;20.20;42.40;;;;;;5072366;28;19924;-63
2023/04/21 10:46:39;;;;;;;;;;;20.20;42.40;;;;;;5093684;28;19926;-63
2023/04/21 10:49:07;;;;;;;;;;;20.20;42.40;;;;;;5091820;28;20350;-64
2023/04/21 10:51:34;;;;;;;;;;;20.20;42.40;;;;;;5073645;28;19969;-63
2023/04/21 10:54:00;;;;;;;;;;;20.20;42.40;;;;;;5094666;28;19927;-63
2023/04/21 10:56:28;;;;;;;;;;;20.20;42.40;;;;;;5098391;28;19924;-64
2023/04/21 10:58:55;;;;;;;;;;;20.30;42.50;;;;;;5075962;28;19920;-63
2023/04/21 11:01:22;;;;;;;;;;;20.20;42.40;;;;;;5076017;28;19934;-64
2023/04/21 11:03:50;;;;;;;;;;;20.20;42.40;;;;;;5054870;28;19920;-64
2023/04/21 11:06:17;;;;;;;;;;;20.30;42.50;;;;;;5072812;28;20309;-63
2023/04/21 11:08:56;;;;;;;;;;;20.20;42.40;;;;;;5072504;28;20015;-64
2023/04/21 11:11:23;;;;;;;;;;;20.20;42.40;;;;;;5089823;28;20312;-63
2023/04/21 11:13:52;;;;;;;;;;;20.20;42.40;;;;;;5072429;28;19920;-64
2023/04/21 11:16:19;;;;;;;;;;;20.20;42.50;;;;;;5076445;28;19924;-64
2023/04/21 11:18:46;;;;;;;;;;;20.30;42.50;;;;;;5071618;28;19920;-64
2023/04/21 11:21:17;;;;;;;;;;;20.20;42.40;;;;;;5093933;28;19987;-64
2023/04/21 11:23:50;;;;;;;;;;;20.30;42.50;;;;;;5073121;28;20328;-64
2023/04/21 11:26:18;;;;;;;;;;;20.30;42.50;;;;;;5055812;28;19920;-64
2023/04/21 11:28:47;;;;;;;;;;;20.30;42.50;;;;;;5093220;28;20016;-64
2023/04/21 11:31:15;;;;;;;;;;;20.30;42.50;;;;;;5090564;28;20031;-64
2023/04/21 11:33:41;;;;;;;;;;;20.30;42.50;;;;;;5073550;28;19924;-64
2023/04/21 11:36:08;;;;;;;;;;;20.30;42.50;;;;;;5090338;28;19965;-64
2023/04/21 11:38:40;;;;;;;;;;;20.30;42.50;;;;;;5075700;28;19920;-65
2023/04/21 11:41:06;;;;;;;;;;;20.30;42.50;;;;;;5075631;28;19970;-65
2023/04/21 11:43:34;;;;;;;;;;;20.30;42.50;;;;;;5093526;28;19920;-65
2023/04/21 11:46:13;;;;;;;;;;;20.30;42.50;;;;;;5075609;28;19920;-65
2023/04/21 11:48:40;;;;;;;;;;;20.20;42.40;;;;;;5070634;28;19973;-64
2023/04/21 11:51:13;;;;;;;;;;;20.30;42.50;;;;;;5072170;28;19920;-64
2023/04/21 11:53:41;;;;;;;;;;;20.30;42.50;;;;;;5073559;28;19973;-64
2023/04/21 11:56:09;;;;;;;;;;;20.30;42.50;;;;;;5056857;28;19996;-64
2023/04/21 11:58:36;;;;;;;;;;;20.30;42.50;;;;;;5076275;28;19963;-64
2023/04/21 12:01:07;;;;;;;;;;;20.30;42.50;;;;;;5075163;28;19920;-64
2023/04/21 12:03:34;;;;;;;;;;;20.30;42.50;;;;;;5079979;28;20343;-65
2023/04/21 12:06:01;;;;;;;;;;;20.30;42.50;;;;;;5077438;28;19920;-65
2023/04/21 12:08:29;;;;;;;;;;;20.30;42.50;;;;;;5079035;28;19980;-64
2023/04/21 12:10:58;;;;;;;;;;;20.30;42.50;;;;;;5079670;28;19974;-64
2023/04/21 12:13:24;;;;;;;;;;;20.30;42.50;;;;;;5073464;28;19920;-65
2023/04/21 12:15:51;;;;;;;;;;;20.30;42.50;;;;;;5088394;28;19919;-64
2023/04/21 12:18:18;;;;;;;;;;;20.30;42.60;;;;;;5077673;28;19920;-64
2023/04/21 12:20:48;;;;;;;;;;;20.30;42.50;;;;;;5095626;28;19920;-64
2023/04/21 12:23:15;;;;;;;;;;;20.30;42.50;;;;;;5078929;28;19996;-64
2023/04/21 12:25:42;;;;;;;;;;;20.30;42.60;;;;;;5097402;28;19924;-64
2023/04/21 12:28:10;;;;;;;;;;;20.30;42.50;;;;;;5093612;28;19981;-64
2023/04/21 12:30:37;;;;;;;;;;;20.30;42.50;;;;;;5078979;28;19931;-63
2023/04/21 12:33:03;;;;;;;;;;;20.30;42.60;;;;;;5075865;28;19928;-64
2023/04/21 12:35:32;;;;;;;;;;;20.30;42.50;;;;;;5095883;28;19924;-65
2023/04/21 12:37:59;;;;;;;;;;;20.30;42.60;;;;;;5078330;28;19920;-64
2023/04/21 12:40:25;;;;;;;;;;;20.30;42.50;;;;;;5076763;28;20014;-64
2023/04/21 12:42:52;;;;;;;;;;;20.30;42.60;;;;;;5058642;28;19930;-64
2023/04/21 12:45:20;;;;;;;;;;;20.30;42.60;;;;;;5078024;28;20370;-64
2023/04/21 12:47:47;;;;;;;;;;;20.30;42.60;;;;;;5091755;28;19927;-65
2023/04/21 12:50:14;;;;;;;;;;;20.30;42.60;;;;;;5094827;28;19920;-65
2023/04/21 12:52:40;;;;;;;;;;;20.30;42.60;;;;;;5074558;28;19924;-65
2023/04/21 12:55:07;;;;;;;;;;;20.30;42.60;;;;;;5083011;28;19928;-64
2023/04/21 12:57:34;;;;;;;;;;;20.30;42.60;;;;;;5065572;28;19927;-64
2023/04/21 13:00:01;;;;;;;;;;;20.30;42.60;;;;;;5061060;28;19927;-63
2023/04/21 13:02:41;;;;;;;;;;;20.30;42.60;;;;;;5074974;28;19924;-64
2023/04/21 13:05:09;;;;;;;;;;;20.30;42.60;;;;;;5075540;28;19920;-64
2023/04/21 13:07:36;;;;;;;;;;;20.30;42.60;;;;;;5076132;28;20018;-64
2023/04/21 13:10:05;;;;;;;;;;;20.30;42.60;;;;;;5076014;28;19970;-64
2023/04/21 13:12:31;;;;;;;;;;;20.30;42.60;;;;;;5095151;28;19920;-64
2023/04/21 13:14:58;;;;;;;;;;;20.30;42.60;;;;;;5078105;28;19973;-64
2023/04/21 13:17:25;;;;;;;;;;;20.30;42.60;;;;;;5092651;28;19924;-63
2023/04/21 13:19:53;;;;;;;;;;;20.30;42.60;;;;;;5089551;28;19920;-64
2023/04/21 13:22:20;;;;;;;;;;;20.30;42.60;;;;;;5092384;28;19920;-64
2023/04/21 13:24:46;;;;;;;;;;;20.30;42.60;;;;;;5091327;28;19978;-64
2023/04/21 13:27:13;;;;;;;;;;;20.30;42.60;;;;;;5091161;28;19974;-64
2023/04/21 13:29:40;;;;;;;;;;;20.30;42.60;;;;;;5076035;28;19920;-64
2023/04/21 13:32:07;;;;;;;;;;;20.30;42.60;;;;;;5077967;28;19981;-63
2023/04/21 13:34:34;;;;;;;;;;;20.30;42.60;;;;;;5095673;28;19941;-63
2023/04/21 13:37:02;;;;;;;;;;;20.30;42.60;;;;;;5093555;28;20022;-64
2023/04/21 13:39:29;;;;;;;;;;;20.30;42.60;;;;;;5094119;28;19920;-65
2023/04/21 13:41:56;;;;;;;;;;;20.30;42.60;;;;;;5095930;28;19941;-64
2023/04/21 13:44:23;;;;;;;;;;;20.30;42.50;;;;;;5095798;28;19993;-64
2023/04/21 13:46:51;;;;;;;;;;;20.30;42.60;;;;;;5078346;28;19943;-64
2023/04/21 13:49:18;;;;;;;;;;;20.30;42.60;;;;;;5094170;28;20378;-64
2023/04/21 13:51:45;;;;;;;;;;;20.30;42.50;;;;;;5077300;28;19920;-64
2023/04/21 13:54:13;;;;;;;;;;;20.30;42.50;;;;;;5095619;28;19924;-64
2023/04/21 13:56:39;;;;;;;;;;;20.30;42.60;;;;;;5063926;28;19959;-64
2023/04/21 13:59:06;;;;;;;;;;;20.30;42.50;;;;;;5060348;28;19920;-64
2023/04/21 14:01:33;;;;;;;;;;;20.30;42.50;;;;;;5095376;28;19935;-64
2023/04/21 14:03:59;;;;;;;;;;;20.30;42.50;;;;;;5095145;28;19924;-64
2023/04/21 14:06:26;;;;;;;;;;;20.30;42.50;;;;;;5095444;28;19920;-64
2023/04/21 14:08:53;;;;;;;;;;;20.30;42.50;;;;;;5076693;28;19966;-64
2023/04/21 14:11:21;;;;;;;;;;;20.30;42.50;;;;;;5077035;28;19969;-64
2023/04/21 14:13:48;;;;;;;;;;;20.30;42.50;;;;;;5073748;28;19949;-64
2023/04/21 14:16:15;;;;;;;;;;;20.30;42.50;;;;;;5076833;28;19924;-64
2023/04/21 14:18:43;;;;;;;;;;;20.30;42.50;;;;;;5091212;28;19920;-64